createdAt,value
2019-03-20T00:00:41.343Z,77.73
2019-03-20T00:03:11.008Z,77.65
2019-03-20T00:05:41.263Z,77.49
2019-03-20T00:08:11.266Z,77.31
2019-03-20T00:10:41.141Z,77.28
2019-03-20T00:13:10.941Z,77.28
2019-03-20T00:15:40.899Z,77.28
2019-03-20T00:18:12.024Z,77.26
2019-03-20T00:20:41.974Z,77.26
2019-03-20T00:23:11.964Z,77.20
2019-03-20T00:25:42.199Z,77.14
2019-03-20T00:28:12.088Z,77.08
2019-03-20T00:30:42.109Z,77.13
2019-03-20T00:33:12.035Z,77.10
2019-03-20T00:35:41.953Z,77.09
2019-03-20T00:38:11.930Z,77.12
2019-03-20T00:40:41.839Z,77.02
2019-03-20T00:43:11.836Z,77.04
2019-03-20T00:45:41.787Z,76.91
2019-03-20T00:48:11.835Z,76.98
2019-03-20T00:50:41.791Z,77.02
2019-03-20T00:53:11.522Z,76.92
2019-03-20T00:55:41.523Z,76.91
2019-03-20T00:58:11.597Z,76.98
2019-03-20T01:00:41.722Z,77.04
2019-03-20T01:03:11.751Z,77.11
2019-03-20T01:05:41.780Z,77.14
2019-03-20T01:08:11.717Z,77.12
2019-03-20T01:10:41.708Z,77.01
2019-03-20T01:13:12.316Z,77.03
2019-03-20T01:15:42.327Z,77.05
2019-03-20T01:18:12.692Z,77.03
2019-03-20T01:20:42.635Z,77.02
2019-03-20T01:23:12.528Z,77.09
2019-03-20T01:25:42.349Z,77.18
2019-03-20T01:28:12.350Z,77.14
2019-03-20T01:30:42.294Z,77.17
2019-03-20T01:33:12.256Z,77.14
2019-03-20T01:35:41.964Z,77.16
2019-03-20T01:38:12.264Z,77.21
2019-03-20T01:40:42.155Z,77.34
2019-03-20T01:43:11.974Z,77.43
2019-03-20T01:45:42.068Z,77.38
2019-03-20T01:48:12.045Z,77.41
2019-03-20T01:50:41.728Z,77.30
2019-03-20T01:53:11.650Z,77.24
2019-03-20T01:55:41.722Z,77.26
2019-03-20T01:58:11.398Z,77.18
2019-03-20T02:00:41.574Z,77.21
2019-03-20T02:03:11.462Z,77.15
2019-03-20T02:05:42.011Z,77.18
2019-03-20T02:08:11.914Z,77.17
2019-03-20T02:10:42.167Z,77.15
2019-03-20T02:13:11.772Z,77.13
2019-03-20T02:15:41.662Z,77.16
2019-03-20T02:18:11.375Z,77.13
2019-03-20T02:20:41.343Z,76.94
2019-03-20T02:23:11.167Z,76.86
2019-03-20T02:25:40.975Z,76.89
2019-03-20T02:28:10.820Z,76.85
2019-03-20T02:30:40.662Z,76.74
2019-03-20T02:33:10.427Z,76.64
2019-03-20T02:35:51.364Z,76.55
2019-03-20T02:38:12.965Z,76.40
2019-03-20T02:40:43.061Z,76.29
2019-03-20T02:43:13.042Z,76.26
2019-03-20T02:45:43.084Z,76.38
2019-03-20T02:48:13.165Z,76.40
2019-03-20T02:50:43.028Z,76.35
2019-03-20T02:53:13.084Z,76.23
2019-03-20T02:55:42.934Z,76.18
2019-03-20T02:58:13.131Z,76.20
2019-03-20T03:00:43.038Z,76.18
2019-03-20T03:03:13.126Z,76.04
2019-03-20T03:05:43.059Z,75.98
2019-03-20T03:08:12.913Z,76.09
2019-03-20T03:10:42.878Z,76.18
2019-03-20T03:13:13.013Z,76.04
2019-03-20T03:15:42.842Z,75.88
2019-03-20T03:18:12.879Z,75.81
2019-03-20T03:20:43.297Z,75.90
2019-03-20T03:23:13.155Z,75.90
2019-03-20T03:25:43.366Z,75.92
2019-03-20T03:28:13.757Z,75.94
2019-03-20T03:30:43.681Z,76.16
2019-03-20T03:33:13.806Z,76.34
2019-03-20T03:35:43.646Z,76.47
2019-03-20T03:38:13.811Z,76.52
2019-03-20T03:40:43.857Z,76.46
2019-03-20T03:43:14.071Z,76.53
2019-03-20T03:45:44.240Z,76.62
2019-03-20T03:48:14.134Z,76.81
2019-03-20T03:50:47.968Z,76.76
2019-03-20T03:53:16.578Z,76.81
2019-03-20T03:55:46.807Z,77.13
2019-03-20T03:58:17.245Z,77.26
2019-03-20T04:00:47.258Z,77.54
2019-03-20T04:03:17.288Z,77.78
2019-03-20T04:05:47.341Z,77.87
2019-03-20T04:08:17.553Z,77.71
2019-03-20T04:10:47.332Z,77.55
2019-03-20T04:13:17.130Z,77.23
2019-03-20T04:15:47.113Z,77.03
2019-03-20T04:18:17.325Z,76.84
2019-03-20T04:20:47.252Z,76.47
2019-03-20T04:23:17.008Z,76.20
2019-03-20T04:25:47.267Z,76.04
2019-03-20T04:28:17.433Z,75.82
2019-03-20T04:30:47.363Z,75.79
2019-03-20T04:33:17.625Z,75.71
2019-03-20T04:35:48.367Z,75.52
2019-03-20T04:38:18.123Z,75.28
2019-03-20T04:40:48.465Z,75.23
2019-03-20T04:43:18.456Z,75.34
2019-03-20T04:45:48.690Z,75.39
2019-03-20T04:48:18.800Z,75.28
2019-03-20T04:50:48.790Z,75.35
2019-03-20T04:53:18.685Z,75.34
2019-03-20T04:55:48.549Z,75.21
2019-03-20T04:58:18.763Z,74.76
2019-03-20T05:00:48.736Z,74.51
2019-03-20T05:03:19.248Z,74.26
2019-03-20T05:05:49.154Z,73.89
2019-03-20T05:08:19.509Z,73.60
2019-03-20T05:10:49.447Z,73.31
2019-03-20T05:13:19.336Z,73.30
2019-03-20T05:15:49.103Z,73.25
2019-03-20T05:18:18.985Z,73.06
2019-03-20T05:20:49.677Z,72.79
2019-03-20T05:23:20.689Z,72.51
2019-03-20T05:25:50.534Z,72.38
2019-03-20T05:28:20.786Z,72.23
2019-03-20T05:30:51.142Z,71.62
2019-03-20T05:33:21.468Z,71.96
2019-03-20T05:35:51.516Z,71.77
2019-03-20T05:38:21.515Z,71.21
2019-03-20T05:40:51.876Z,70.89
2019-03-20T05:43:21.957Z,70.47
2019-03-20T05:45:52.006Z,70.72
2019-03-20T05:48:23.059Z,70.47
2019-03-20T05:50:53.879Z,70.31
2019-03-20T05:53:23.840Z,70.50
2019-03-20T05:55:54.287Z,70.53
2019-03-20T05:58:25.093Z,70.64
2019-03-20T06:00:54.998Z,70.42
2019-03-20T06:03:25.029Z,70.54
2019-03-20T06:05:55.265Z,70.86
2019-03-20T06:08:25.309Z,70.75
2019-03-20T06:10:55.234Z,70.74
2019-03-20T06:13:25.235Z,70.62
2019-03-20T06:15:55.195Z,70.36
2019-03-20T06:18:26.659Z,70.19
2019-03-20T06:20:57.159Z,70.11
2019-03-20T06:23:27.205Z,69.84
2019-03-20T06:25:57.044Z,69.47
2019-03-20T06:28:27.254Z,69.11
2019-03-20T06:30:57.262Z,69.20
2019-03-20T06:33:30.236Z,69.15
2019-03-20T06:36:00.438Z,69.10
2019-03-20T06:38:30.538Z,68.47
2019-03-20T06:41:00.949Z,67.84
2019-03-20T06:43:37.121Z,67.39
2019-03-20T06:46:07.128Z,66.66
2019-03-20T06:48:41.406Z,66.62
2019-03-20T06:51:11.669Z,66.57
2019-03-20T06:53:42.030Z,65.51
2019-03-20T06:56:12.208Z,65.93
2019-03-20T06:58:42.341Z,65.75
2019-03-20T07:01:23.897Z,65.66
2019-03-20T07:04:02.008Z,65.51
2019-03-20T07:07:11.089Z,65.08
2019-03-20T07:09:58.371Z,64.91
2019-03-20T07:12:28.559Z,64.84
2019-03-20T07:14:58.469Z,64.87
2019-03-20T07:17:28.625Z,64.54
2019-03-20T07:19:58.788Z,63.27
2019-03-20T07:22:29.017Z,62.21
2019-03-20T07:24:59.938Z,61.49
2019-03-20T07:27:30.672Z,61.53
2019-03-20T07:30:01.580Z,61.64
2019-03-20T07:32:31.758Z,61.75
2019-03-20T07:35:03.235Z,61.14
2019-03-20T07:37:33.737Z,61.22
2019-03-20T07:40:04.768Z,61.34
2019-03-20T07:42:35.186Z,61.06
2019-03-20T07:45:08.463Z,60.27
2019-03-20T07:47:39.171Z,59.48
2019-03-20T07:50:09.148Z,59.16
2019-03-20T07:52:39.090Z,58.82
2019-03-20T07:55:09.265Z,58.68
2019-03-20T07:57:40.381Z,58.42
2019-03-20T08:00:13.977Z,58.96
2019-03-20T08:02:44.238Z,58.62
2019-03-20T08:05:14.566Z,58.16
2019-03-20T08:07:45.024Z,58.33
2019-03-20T08:10:15.867Z,58.53
2019-03-20T08:12:45.732Z,58.34
2019-03-20T08:15:15.837Z,58.43
2019-03-20T08:17:45.870Z,58.53
2019-03-20T08:20:16.198Z,58.53
2019-03-20T08:22:46.115Z,58.26
2019-03-20T08:25:16.190Z,57.97
2019-03-20T08:27:46.205Z,57.55
2019-03-20T08:30:16.611Z,56.47
2019-03-20T08:32:46.864Z,55.80
2019-03-20T08:35:16.670Z,55.51
2019-03-20T08:37:46.563Z,55.50
2019-03-20T08:40:17.058Z,55.67
2019-03-20T08:42:47.248Z,55.73
2019-03-20T08:45:17.363Z,55.31
2019-03-20T08:47:47.741Z,54.58
2019-03-20T08:50:18.482Z,54.49
2019-03-20T08:52:48.793Z,53.40
2019-03-20T08:55:19.046Z,53.06
2019-03-20T08:57:49.230Z,53.07
2019-03-20T09:00:19.464Z,52.66
2019-03-20T09:02:49.681Z,52.17
2019-03-20T09:05:19.874Z,51.30
2019-03-20T09:07:50.116Z,50.76
2019-03-20T09:10:20.249Z,50.10
2019-03-20T09:12:50.497Z,49.70
2019-03-20T09:15:20.862Z,49.32
2019-03-20T09:17:50.880Z,48.70
2019-03-20T09:20:21.022Z,49.20
2019-03-20T09:22:51.881Z,49.16
2019-03-20T09:25:23.415Z,48.90
2019-03-20T09:27:53.561Z,48.47
2019-03-20T09:30:24.881Z,48.40
2019-03-20T09:32:55.105Z,48.18
2019-03-20T09:35:25.648Z,47.28
2019-03-20T09:37:55.627Z,47.73
2019-03-20T09:40:25.749Z,46.95
2019-03-20T09:42:55.700Z,46.34
2019-03-20T09:45:25.687Z,46.03
2019-03-20T09:47:55.668Z,46.20
2019-03-20T09:50:25.639Z,45.85
2019-03-20T09:52:55.853Z,46.20
2019-03-20T09:55:25.956Z,46.23
2019-03-20T09:57:55.928Z,46.53
2019-03-20T10:00:25.969Z,47.07
2019-03-20T10:02:56.846Z,47.38
2019-03-20T10:05:27.262Z,48.48
2019-03-20T10:07:57.390Z,49.32
2019-03-20T10:10:27.890Z,50.31
2019-03-20T10:12:57.980Z,51.20
2019-03-20T10:15:29.183Z,51.41
2019-03-20T10:17:59.717Z,51.44
2019-03-20T10:20:30.233Z,51.43
2019-03-20T10:23:00.021Z,51.23
2019-03-20T10:25:30.855Z,50.89
2019-03-20T10:28:00.917Z,50.17
2019-03-20T10:30:30.742Z,49.40
2019-03-20T10:33:00.805Z,48.25
2019-03-20T10:35:30.912Z,47.48
2019-03-20T10:38:02.744Z,47.58
2019-03-20T10:40:32.814Z,47.01
2019-03-20T10:43:03.089Z,46.70
2019-03-20T10:45:33.527Z,46.58
2019-03-20T10:48:03.338Z,47.02
2019-03-20T10:50:33.388Z,47.50
2019-03-20T10:53:06.971Z,47.09
2019-03-20T10:55:37.072Z,46.83
2019-03-20T10:58:07.227Z,46.55
2019-03-20T11:00:37.395Z,46.78
2019-03-20T11:03:07.484Z,46.94
2019-03-20T11:05:37.751Z,47.11
2019-03-20T11:08:07.838Z,47.17
2019-03-20T11:10:40.439Z,47.59
2019-03-20T11:13:10.555Z,47.66
2019-03-20T11:15:44.356Z,47.54
2019-03-20T11:18:18.052Z,46.90
2019-03-20T11:20:48.200Z,46.96
2019-03-20T11:23:21.430Z,46.31
2019-03-20T11:25:51.879Z,45.92
2019-03-20T11:28:24.259Z,46.38
2019-03-20T11:30:55.308Z,46.60
2019-03-20T11:33:25.518Z,46.56
2019-03-20T11:35:56.750Z,46.66
2019-03-20T11:38:26.655Z,46.54
2019-03-20T11:40:57.153Z,45.95
2019-03-20T11:43:27.428Z,46.42
2019-03-20T11:45:57.606Z,46.60
2019-03-20T11:48:27.802Z,46.58
2019-03-20T11:51:00.937Z,46.86
2019-03-20T11:53:31.114Z,46.86
2019-03-20T11:56:01.235Z,46.63
2019-03-20T11:58:31.204Z,46.90
2019-03-20T12:01:01.319Z,46.53
2019-03-20T12:03:31.299Z,46.66
2019-03-20T12:06:01.800Z,46.54
2019-03-20T12:08:34.228Z,46.90
2019-03-20T12:11:04.635Z,47.07
2019-03-20T12:13:35.664Z,47.01
2019-03-20T12:16:05.978Z,47.71
2019-03-20T12:18:36.389Z,47.93
2019-03-20T12:21:06.355Z,47.91
2019-03-20T12:23:38.243Z,48.15
2019-03-20T12:26:08.665Z,48.34
2019-03-20T12:28:39.045Z,48.90
2019-03-20T12:31:09.241Z,48.98
2019-03-20T12:33:39.514Z,49.36
2019-03-20T12:36:09.596Z,49.50
2019-03-20T12:38:39.617Z,49.82
2019-03-20T12:41:09.645Z,49.86
2019-03-20T12:43:39.703Z,50.08
2019-03-20T12:46:10.663Z,49.95
2019-03-20T12:48:40.715Z,49.41
2019-03-20T12:51:11.341Z,49.47
2019-03-20T12:53:41.500Z,49.04
2019-03-20T12:56:11.789Z,48.99
2019-03-20T12:58:41.607Z,48.71
2019-03-20T13:01:11.701Z,48.46
2019-03-20T13:03:41.784Z,48.29
2019-03-20T13:06:12.387Z,47.85
2019-03-20T13:08:42.550Z,47.42
2019-03-20T13:11:12.605Z,47.25
2019-03-20T13:13:43.667Z,47.03
2019-03-20T13:16:13.978Z,46.61
2019-03-20T13:18:44.007Z,46.16
2019-03-20T13:21:14.526Z,46.28
2019-03-20T13:23:45.011Z,45.90
2019-03-20T13:26:15.512Z,46.02
2019-03-20T13:28:45.505Z,46.22
2019-03-20T13:31:18.306Z,46.34
2019-03-20T13:33:49.286Z,46.71
2019-03-20T13:36:20.282Z,47.14
2019-03-20T13:38:56.568Z,47.24
2019-03-20T13:41:26.447Z,47.23
2019-03-20T13:43:56.378Z,47.11
2019-03-20T13:46:26.737Z,47.25
2019-03-20T13:48:56.896Z,47.39
2019-03-20T13:51:26.931Z,47.62
2019-03-20T13:53:57.121Z,47.89
2019-03-20T13:56:27.135Z,48.22
2019-03-20T13:58:58.043Z,48.42
2019-03-20T14:01:28.486Z,48.50
2019-03-20T14:03:59.148Z,48.52
2019-03-20T14:06:29.402Z,48.67
2019-03-20T14:09:05.076Z,48.98
2019-03-20T14:11:36.237Z,49.08
2019-03-20T14:14:06.257Z,49.26
2019-03-20T14:16:37.055Z,49.16
2019-03-20T14:19:07.280Z,49.44
2019-03-20T14:21:37.946Z,49.56
2019-03-20T14:24:08.241Z,49.81
2019-03-20T14:26:38.469Z,49.88
2019-03-20T14:29:09.576Z,50.04
2019-03-20T14:31:39.940Z,50.20
2019-03-20T14:34:10.735Z,50.17
2019-03-20T14:36:41.543Z,50.45
2019-03-20T14:39:12.553Z,50.63
2019-03-20T14:41:43.640Z,50.88
2019-03-20T14:44:13.819Z,50.72
2019-03-20T14:46:44.038Z,50.70
2019-03-20T14:49:14.041Z,50.98
2019-03-20T14:51:44.506Z,51.00
2019-03-20T14:54:14.602Z,50.90
2019-03-20T14:56:44.779Z,50.99
2019-03-20T14:59:15.884Z,51.18
2019-03-20T15:01:46.102Z,51.41
2019-03-20T15:04:16.325Z,51.52
2019-03-20T15:06:46.734Z,51.66
2019-03-20T15:09:18.246Z,52.03
2019-03-20T15:11:49.209Z,52.07
2019-03-20T15:14:20.023Z,52.02
2019-03-20T15:16:49.899Z,52.22
2019-03-20T15:19:20.683Z,52.89
2019-03-20T15:21:52.431Z,52.93
2019-03-20T15:24:22.651Z,53.13
2019-03-20T15:26:53.144Z,53.37
2019-03-20T15:29:23.353Z,53.42
2019-03-20T15:31:53.867Z,53.69
2019-03-20T15:34:24.138Z,54.09
2019-03-20T15:36:54.662Z,54.55
2019-03-20T15:39:25.061Z,54.46
2019-03-20T15:42:10.349Z,54.98
2019-03-20T15:44:41.481Z,54.99
2019-03-20T15:47:11.932Z,54.62
2019-03-20T15:49:42.206Z,54.62
2019-03-20T15:52:12.385Z,54.51
2019-03-20T15:54:42.775Z,54.68
2019-03-20T15:57:12.745Z,55.01
2019-03-20T15:59:43.009Z,54.93
2019-03-20T16:02:13.440Z,55.41
2019-03-20T16:04:45.198Z,55.64
2019-03-20T16:07:16.058Z,55.66
2019-03-20T16:09:47.385Z,55.68
2019-03-20T16:12:17.806Z,55.27
2019-03-20T16:14:47.941Z,55.09
2019-03-20T16:17:18.095Z,55.53
2019-03-20T16:19:49.139Z,55.73
2019-03-20T16:22:19.431Z,55.14
2019-03-20T16:24:49.657Z,55.56
2019-03-20T16:27:19.778Z,55.82
2019-03-20T16:29:49.902Z,55.95
2019-03-20T16:32:20.142Z,55.70
2019-03-20T16:34:50.368Z,55.90
2019-03-20T16:37:20.606Z,55.89
2019-03-20T16:39:50.374Z,55.76
2019-03-20T16:42:23.876Z,55.88
2019-03-20T16:44:53.959Z,55.91
2019-03-20T16:47:25.119Z,55.88
2019-03-20T16:49:55.466Z,56.03
2019-03-20T16:52:27.504Z,56.15
2019-03-20T16:54:57.915Z,56.29
2019-03-20T16:57:27.792Z,56.83
2019-03-20T16:59:58.682Z,57.30
2019-03-20T17:02:28.934Z,57.63
2019-03-20T17:04:59.998Z,58.00
2019-03-20T17:07:29.842Z,58.59
2019-03-20T17:10:02.832Z,58.94
2019-03-20T17:12:33.828Z,59.13
2019-03-20T17:15:06.175Z,59.52
2019-03-20T17:17:36.423Z,59.94
2019-03-20T17:20:06.586Z,60.15
2019-03-20T17:22:41.892Z,60.36
2019-03-20T17:25:09.179Z,60.61
2019-03-20T17:27:39.352Z,60.66
2019-03-20T17:30:23.886Z,60.97
2019-03-20T17:32:53.981Z,61.06
2019-03-20T17:35:24.308Z,61.11
2019-03-20T17:37:54.624Z,61.40
2019-03-20T17:40:24.906Z,61.75
2019-03-20T17:42:54.980Z,61.51
2019-03-20T17:45:26.327Z,61.52
2019-03-20T17:47:57.091Z,61.32
2019-03-20T17:50:27.894Z,61.47
2019-03-20T17:52:58.007Z,61.57
2019-03-20T17:55:27.822Z,61.31
2019-03-20T17:57:58.209Z,61.11
2019-03-20T18:00:39.801Z,61.18
2019-03-20T18:03:10.582Z,61.73
2019-03-20T18:05:41.537Z,61.32
2019-03-20T18:08:11.905Z,60.95
2019-03-20T18:10:42.317Z,60.77
2019-03-20T18:13:12.592Z,60.79
2019-03-20T18:15:43.080Z,60.65
2019-03-20T18:18:13.275Z,60.29
2019-03-20T18:20:43.812Z,60.52
2019-03-20T18:23:14.573Z,59.98
2019-03-20T18:25:44.675Z,59.51
2019-03-20T18:28:14.838Z,59.12
2019-03-20T18:30:45.102Z,59.18
2019-03-20T18:33:15.431Z,58.83
2019-03-20T18:35:45.283Z,58.38
2019-03-20T18:38:15.652Z,58.50
2019-03-20T18:40:45.703Z,58.64
2019-03-20T18:43:16.267Z,58.87
2019-03-20T18:45:48.202Z,59.25
2019-03-20T18:48:18.230Z,59.68
2019-03-20T18:50:48.515Z,60.44
2019-03-20T18:53:18.348Z,60.63
2019-03-20T18:55:48.485Z,60.54
2019-03-20T18:58:18.363Z,60.59
2019-03-20T19:00:48.871Z,60.28
2019-03-20T19:03:18.753Z,60.37
2019-03-20T19:05:59.066Z,60.43
2019-03-20T19:08:29.202Z,60.12
2019-03-20T19:10:59.250Z,60.16
2019-03-20T19:13:29.205Z,60.08
2019-03-20T19:15:59.505Z,60.05
2019-03-20T19:18:29.421Z,60.31
2019-03-20T19:20:59.536Z,60.36
2019-03-20T19:23:29.994Z,60.45
2019-03-20T19:26:00.039Z,60.48
2019-03-20T19:28:30.754Z,60.44
2019-03-20T19:31:01.191Z,60.57
2019-03-20T19:33:32.186Z,60.76
2019-03-20T19:36:02.114Z,61.10
2019-03-20T19:38:35.065Z,61.52
2019-03-20T19:41:04.077Z,62.00
2019-03-20T19:43:34.363Z,62.42
2019-03-20T19:46:04.533Z,62.86
2019-03-20T19:48:34.666Z,63.11
2019-03-20T19:51:05.014Z,63.77
2019-03-20T19:53:35.087Z,63.80
2019-03-20T19:56:05.325Z,63.92
2019-03-20T19:58:35.459Z,63.95
2019-03-20T20:01:05.760Z,64.34
2019-03-20T20:03:35.725Z,64.56
2019-03-20T20:06:06.100Z,64.61
2019-03-20T20:08:36.180Z,64.98
2019-03-20T20:11:06.248Z,64.96
2019-03-20T20:13:37.522Z,65.15
2019-03-20T20:16:08.680Z,65.38
2019-03-20T20:18:38.636Z,65.65
2019-03-20T20:21:08.667Z,65.77
2019-03-20T20:23:39.750Z,65.80
2019-03-20T20:26:09.832Z,66.10
2019-03-20T20:28:39.912Z,66.11
2019-03-20T20:31:09.957Z,66.26
2019-03-20T20:33:40.789Z,66.42
2019-03-20T20:36:10.915Z,66.39
2019-03-20T20:38:41.487Z,66.38
2019-03-20T20:41:14.527Z,66.50
2019-03-20T20:43:44.707Z,66.70
2019-03-20T20:46:14.619Z,66.85
2019-03-20T20:48:44.618Z,67.20
2019-03-20T20:51:17.531Z,67.46
2019-03-20T20:53:47.500Z,67.59
2019-03-20T20:56:18.493Z,67.70
2019-03-20T20:58:48.558Z,67.81
2019-03-20T21:01:18.560Z,67.81
2019-03-20T21:03:49.542Z,67.67
2019-03-20T21:06:19.384Z,67.60
2019-03-20T21:08:49.488Z,67.68
2019-03-20T21:11:21.477Z,67.92
2019-03-20T21:13:51.510Z,68.35
2019-03-20T21:16:22.046Z,68.61
2019-03-20T21:19:32.696Z,68.76
2019-03-20T21:22:45.097Z,69.19
2019-03-20T21:25:20.111Z,69.20
2019-03-20T21:28:50.096Z,69.17
2019-03-20T21:31:41.836Z,69.32
2019-03-20T21:34:56.611Z,69.38
2019-03-20T21:38:13.847Z,69.62
2019-03-20T21:41:07.253Z,70.02
2019-03-20T21:44:40.058Z,70.03
2019-03-20T21:47:35.741Z,70.31
2019-03-20T21:50:55.606Z,70.51
2019-03-20T21:53:52.961Z,70.72
2019-03-20T21:56:31.917Z,70.90
2019-03-20T21:59:34.837Z,71.01
2019-03-20T22:02:27.007Z,70.99
2019-03-20T22:04:57.501Z,71.11
2019-03-20T22:07:28.650Z,71.26
2019-03-20T22:10:38.627Z,71.44
2019-03-20T22:13:35.992Z,71.56
2019-03-20T22:16:47.096Z,71.70
2019-03-20T22:19:42.264Z,71.79
2019-03-20T22:22:52.581Z,71.84
2019-03-20T22:26:25.379Z,71.90
2019-03-20T22:29:20.179Z,71.88
2019-03-20T22:32:46.721Z,71.60
2019-03-20T22:35:37.810Z,71.89
2019-03-20T22:38:13.991Z,71.94
2019-03-20T22:41:32.035Z,72.04
2019-03-20T22:44:04.966Z,72.27
2019-03-20T22:47:28.560Z,72.27
2019-03-20T22:50:36.407Z,72.43
2019-03-20T22:54:05.690Z,72.81
2019-03-20T22:56:56.718Z,73.02
2019-03-20T22:59:28.030Z,72.98
2019-03-20T23:02:05.999Z,72.97
2019-03-20T23:04:40.247Z,72.97
2019-03-20T23:07:10.851Z,73.12
2019-03-20T23:09:41.480Z,73.18
2019-03-20T23:12:14.384Z,73.40
2019-03-20T23:14:44.813Z,73.46
2019-03-20T23:17:15.658Z,73.53
2019-03-20T23:19:47.483Z,73.54
2019-03-20T23:22:17.967Z,73.51
2019-03-20T23:24:48.721Z,73.57
2019-03-20T23:27:23.176Z,73.69
2019-03-20T23:29:57.613Z,73.65
2019-03-20T23:32:28.673Z,73.62
2019-03-20T23:34:59.310Z,73.51
2019-03-20T23:37:29.943Z,73.41
2019-03-20T23:40:00.364Z,73.44
2019-03-20T23:42:31.302Z,73.36
2019-03-20T23:45:01.634Z,73.33
2019-03-20T23:47:41.146Z,73.23
2019-03-20T23:50:11.697Z,73.08
2019-03-20T23:52:42.179Z,72.93
2019-03-20T23:55:12.910Z,72.66
2019-03-20T23:57:43.228Z,72.30
